createdAt,value
2023-11-12T00:02:10.373Z,96620.20
2023-11-12T00:04:42.007Z,96623.45
2023-11-12T00:07:13.223Z,96621.54
2023-11-12T00:09:46.155Z,96617.35
2023-11-12T00:12:17.310Z,96620.25
2023-11-12T00:14:48.414Z,96622.23
2023-11-12T00:17:19.615Z,96622.09
2023-11-12T00:19:50.564Z,96622.10
2023-11-12T00:22:22.153Z,96622.73
2023-11-12T00:24:53.397Z,96625.46
2023-11-12T00:27:24.764Z,96625.77
2023-11-12T00:29:54.180Z,96629.64
2023-11-12T00:32:25.344Z,96626.67
2023-11-12T00:34:55.046Z,96632.67
2023-11-12T00:37:26.155Z,96632.36
2023-11-12T00:39:55.677Z,96637.85
2023-11-12T00:42:26.833Z,96641.08
2023-11-12T00:44:59.196Z,96642.66
2023-11-12T00:47:30.039Z,96642.72
2023-11-12T00:50:00.966Z,96639.71
2023-11-12T00:52:33.183Z,96643.06
2023-11-12T00:55:04.304Z,96641.42
2023-11-12T00:57:36.016Z,96644.52
2023-11-12T01:00:08.733Z,96644.11
2023-11-12T01:02:39.872Z,96644.88
2023-11-12T01:05:11.974Z,96642.30
2023-11-12T01:07:43.172Z,96641.49
2023-11-12T01:10:14.580Z,96643.88
2023-11-12T01:12:45.999Z,96649.47
2023-11-12T01:15:19.206Z,96646.29
2023-11-12T01:17:50.538Z,96648.20
2023-11-12T01:20:22.527Z,96650.59
2023-11-12T01:22:53.433Z,96650.67
2023-11-12T01:25:25.016Z,96650.38
2023-11-12T01:27:56.101Z,96652.77
2023-11-12T01:30:26.761Z,96655.85
2023-11-12T01:32:58.136Z,96652.77
2023-11-12T01:35:29.165Z,96650.48
2023-11-12T01:38:00.258Z,96649.48
2023-11-12T01:40:29.775Z,96647.41
2023-11-12T01:43:00.740Z,96641.84
2023-11-12T01:45:32.434Z,96642.78
2023-11-12T01:48:05.368Z,96638.88
2023-11-12T01:50:37.456Z,96645.41
2023-11-12T01:53:08.653Z,96645.17
2023-11-12T01:55:39.957Z,96648.64
2023-11-12T01:58:11.627Z,96650.55
2023-11-12T02:00:45.561Z,96650.30
2023-11-12T02:03:20.664Z,96647.89
2023-11-12T02:05:51.769Z,96639.98
2023-11-12T02:08:23.857Z,96637.80
2023-11-12T02:10:56.062Z,96636.11
2023-11-12T02:13:27.245Z,96632.55
2023-11-12T02:15:58.606Z,96634.42
2023-11-12T02:18:29.669Z,96632.55
2023-11-12T02:21:00.862Z,96632.59
2023-11-12T02:23:33.084Z,96632.46
2023-11-12T02:26:03.923Z,96632.38
2023-11-12T02:28:34.855Z,96629.95
2023-11-12T02:31:06.328Z,96633.70
2023-11-12T02:33:37.910Z,96637.20
2023-11-12T02:36:10.715Z,96636.34
2023-11-12T02:38:41.809Z,96637.89
2023-11-12T02:41:12.991Z,96639.85
2023-11-12T02:43:44.334Z,96639.48
2023-11-12T02:46:17.446Z,96639.95
2023-11-12T02:49:10.376Z,96637.61
2023-11-12T02:51:50.895Z,96640.98
2023-11-12T02:54:21.776Z,96641.25
2023-11-12T02:56:51.446Z,96640.92
2023-11-12T02:59:22.642Z,96642.99
2023-11-12T03:01:54.024Z,96640.35
2023-11-12T03:04:25.087Z,96637.60
2023-11-12T03:06:56.084Z,96635.71
2023-11-12T03:09:30.043Z,96637.82
2023-11-12T03:12:04.122Z,96638.89
2023-11-12T03:14:35.582Z,96643.23
2023-11-12T03:17:06.680Z,96641.14
2023-11-12T03:19:36.521Z,96639.13
2023-11-12T03:22:10.303Z,96635.69
2023-11-12T03:24:41.291Z,96631.48
2023-11-12T03:27:12.212Z,96633.05
2023-11-12T03:29:43.468Z,96632.74
2023-11-12T03:32:14.600Z,96634.73
2023-11-12T03:34:44.172Z,96633.14
2023-11-12T03:37:15.180Z,96634.42
2023-11-12T03:39:46.405Z,96637.28
2023-11-12T03:42:16.899Z,96634.59
2023-11-12T03:44:48.725Z,96644.20
2023-11-12T03:47:19.832Z,96645.20
2023-11-12T03:49:51.100Z,96642.98
2023-11-12T03:52:20.499Z,96647.42
2023-11-12T03:54:51.559Z,96648.16
2023-11-12T03:57:23.465Z,96649.61
2023-11-12T03:59:55.074Z,96650.51
2023-11-12T04:02:26.144Z,96651.48
2023-11-12T04:04:57.454Z,96657.77
2023-11-12T04:07:28.534Z,96654.55
2023-11-12T04:09:59.516Z,96655.34
2023-11-12T04:12:30.617Z,96655.14
2023-11-12T04:15:01.567Z,96654.78
2023-11-12T04:17:34.386Z,96655.11
2023-11-12T04:20:04.911Z,96655.05
2023-11-12T04:22:37.372Z,96651.58
2023-11-12T04:25:09.195Z,96652.48
2023-11-12T04:27:40.640Z,96652.02
2023-11-12T04:30:13.192Z,96654.14
2023-11-12T04:32:46.419Z,96653.95
2023-11-12T04:35:18.381Z,96655.35
2023-11-12T04:37:49.779Z,96656.98
2023-11-12T04:40:22.079Z,96655.33
2023-11-12T04:42:53.335Z,96651.69
2023-11-12T04:45:25.799Z,96653.49
2023-11-12T04:47:56.898Z,96655.02
2023-11-12T04:50:27.836Z,96652.56
2023-11-12T04:52:58.903Z,96653.27
2023-11-12T04:55:30.204Z,96652.86
2023-11-12T04:58:02.697Z,96657.46
2023-11-12T05:00:33.988Z,96661.61
2023-11-12T05:03:06.103Z,96662.48
2023-11-12T05:05:38.307Z,96662.58
2023-11-12T05:08:10.262Z,96668.34
2023-11-12T05:10:45.253Z,96669.86
2023-11-12T05:13:17.630Z,96669.27
2023-11-12T05:15:48.895Z,96673.20
2023-11-12T05:18:20.028Z,96672.14
2023-11-12T05:20:51.184Z,96673.45
2023-11-12T05:23:20.831Z,96676.86
2023-11-12T05:25:52.381Z,96679.14
2023-11-12T05:28:24.741Z,96679.60
2023-11-12T05:30:56.669Z,96679.09
2023-11-12T05:33:28.083Z,96682.35
2023-11-12T05:35:57.568Z,96678.73
2023-11-12T05:38:28.770Z,96679.75
2023-11-12T05:40:59.854Z,96686.27
2023-11-12T05:43:31.473Z,96685.76
2023-11-12T05:46:02.933Z,96690.25
2023-11-12T05:48:34.124Z,96694.20
2023-11-12T05:51:05.291Z,96695.13
2023-11-12T05:53:36.475Z,96691.61
2023-11-12T05:56:09.405Z,96692.16
2023-11-12T05:58:40.420Z,96697.88
2023-11-12T06:01:13.452Z,96699.43
2023-11-12T06:03:44.807Z,96698.96
2023-11-12T06:06:16.755Z,96698.45
2023-11-12T06:08:47.976Z,96700.30
2023-11-12T06:11:17.389Z,96703.71
2023-11-12T06:13:48.385Z,96707.29
2023-11-12T06:16:19.252Z,96713.14
2023-11-12T06:18:50.963Z,96712.18
2023-11-12T06:21:21.943Z,96718.96
2023-11-12T06:23:52.996Z,96720.69
2023-11-12T06:26:24.080Z,96721.17
2023-11-12T06:28:55.050Z,96724.59
2023-11-12T06:31:26.093Z,96727.16
2023-11-12T06:33:55.792Z,96727.60
2023-11-12T06:36:26.951Z,96732.75
2023-11-12T06:38:58.090Z,96730.54
2023-11-12T06:41:29.435Z,96733.14
2023-11-12T06:44:00.603Z,96740.20
2023-11-12T06:46:30.354Z,96744.06
2023-11-12T06:49:01.534Z,96746.59
2023-11-12T06:51:33.240Z,96750.61
2023-11-12T06:54:04.385Z,96755.90
2023-11-12T06:56:35.299Z,96756.10
2023-11-12T06:59:06.658Z,96758.63
2023-11-12T07:01:38.754Z,96757.63
2023-11-12T07:04:11.801Z,96758.09
2023-11-12T07:06:50.268Z,96761.70
2023-11-12T07:09:25.459Z,96765.54
2023-11-12T07:11:56.651Z,96764.73
2023-11-12T07:14:27.729Z,96766.20
2023-11-12T07:16:58.650Z,96770.23
2023-11-12T07:19:29.774Z,96772.76
2023-11-12T07:22:01.703Z,96775.69
2023-11-12T07:24:36.259Z,96777.77
2023-11-12T07:27:08.198Z,96778.41
2023-11-12T07:29:39.120Z,96777.75
2023-11-12T07:32:10.326Z,96773.84
2023-11-12T07:34:39.734Z,96778.91
2023-11-12T07:37:11.854Z,96780.35
2023-11-12T07:39:42.730Z,96774.48
2023-11-12T07:42:13.876Z,96777.20
2023-11-12T07:44:44.892Z,96779.40
2023-11-12T07:47:16.036Z,96778.15
2023-11-12T07:49:47.072Z,96778.90
2023-11-12T07:52:18.456Z,96780.85
2023-11-12T07:54:49.677Z,96787.64
2023-11-12T07:57:21.370Z,96787.77
2023-11-12T07:59:53.267Z,96794.18
2023-11-12T08:02:25.789Z,96791.33
2023-11-12T08:04:57.419Z,96794.46
2023-11-12T08:07:28.486Z,96794.50
2023-11-12T08:09:58.272Z,96796.27
2023-11-12T08:12:29.950Z,96799.31
2023-11-12T08:15:00.929Z,96800.11
2023-11-12T08:17:33.459Z,96803.10
2023-11-12T08:20:05.482Z,96806.33
2023-11-12T08:22:36.438Z,96807.84
2023-11-12T08:25:10.966Z,96805.95
2023-11-12T08:27:42.052Z,96808.49
2023-11-12T08:30:13.881Z,96806.63
2023-11-12T08:32:44.918Z,96806.44
2023-11-12T08:35:15.876Z,96804.63
2023-11-12T08:37:47.043Z,96798.96
2023-11-12T08:40:20.046Z,96795.41
2023-11-12T08:42:51.413Z,96797.70
2023-11-12T08:45:23.494Z,96797.87
2023-11-12T08:47:54.625Z,96803.15
2023-11-12T08:50:24.069Z,96799.73
2023-11-12T08:52:57.906Z,96799.34
2023-11-12T08:55:29.645Z,96799.34
2023-11-12T08:58:00.955Z,96806.11
2023-11-12T09:00:30.478Z,96811.34
2023-11-12T09:03:01.586Z,96813.05
2023-11-12T09:05:36.635Z,96817.02
2023-11-12T09:08:09.340Z,96811.65
2023-11-12T09:10:40.407Z,96812.64
2023-11-12T09:13:11.647Z,96810.64
2023-11-12T09:15:43.858Z,96808.57
2023-11-12T09:18:15.328Z,96811.35
2023-11-12T09:20:46.666Z,96814.06
2023-11-12T09:23:17.694Z,96816.23
2023-11-12T09:25:50.873Z,96816.90
2023-11-12T09:28:22.015Z,96814.41
2023-11-12T09:30:59.335Z,96820.94
2023-11-12T09:33:31.685Z,96823.98
2023-11-12T09:36:02.649Z,96825.36
2023-11-12T09:38:36.778Z,96829.11
2023-11-12T09:41:08.988Z,96825.59
2023-11-12T09:43:40.555Z,96825.00
2023-11-12T09:46:12.053Z,96819.75
2023-11-12T09:48:45.666Z,96818.02
2023-11-12T09:51:17.470Z,96818.19
2023-11-12T09:53:51.762Z,96817.80
2023-11-12T09:56:26.215Z,96814.90
2023-11-12T09:58:57.237Z,96810.71
2023-11-12T10:01:28.677Z,96812.84
2023-11-12T10:04:00.466Z,96815.05
2023-11-12T10:06:32.796Z,96810.70
2023-11-12T10:09:03.869Z,96809.51
2023-11-12T10:11:35.316Z,96809.44
2023-11-12T10:14:17.460Z,96802.89
2023-11-12T10:16:48.544Z,96803.16
2023-11-12T10:19:18.111Z,96805.16
2023-11-12T10:21:59.991Z,96805.94
2023-11-12T10:24:32.931Z,96804.27
2023-11-12T10:27:07.029Z,96805.73
2023-11-12T10:29:38.148Z,96802.62
2023-11-12T10:32:08.028Z,96806.92
2023-11-12T10:34:50.115Z,96806.69
2023-11-12T10:37:21.268Z,96805.56
2023-11-12T10:39:51.037Z,96802.63
2023-11-12T10:42:26.428Z,96802.23
2023-11-12T10:45:00.078Z,96800.65
2023-11-12T10:47:33.776Z,96800.61
2023-11-12T10:50:06.224Z,96793.70
2023-11-12T10:52:39.337Z,96791.17
2023-11-12T10:55:11.857Z,96792.13
2023-11-12T10:57:45.384Z,96790.63
2023-11-12T11:00:20.938Z,96792.23
2023-11-12T11:02:52.411Z,96792.77
2023-11-12T11:05:26.358Z,96795.21
2023-11-12T11:07:57.508Z,96795.10
2023-11-12T11:10:28.924Z,96796.63
2023-11-12T11:13:00.236Z,96795.96
2023-11-12T11:15:55.749Z,96793.94
2023-11-12T11:18:54.084Z,96794.79
2023-11-12T11:21:25.127Z,96795.23
2023-11-12T11:23:55.105Z,96796.09
2023-11-12T11:26:35.802Z,96800.30
2023-11-12T11:29:21.765Z,96800.20
2023-11-12T11:32:17.067Z,96803.79
2023-11-12T11:34:49.761Z,96803.77
2023-11-12T11:37:22.443Z,96805.91
2023-11-12T11:39:53.979Z,96807.21
2023-11-12T11:42:26.071Z,96801.98
2023-11-12T11:45:07.763Z,96809.73
2023-11-12T11:47:40.511Z,96813.66
2023-11-12T11:50:46.251Z,96811.33
2023-11-12T11:53:20.030Z,96807.02
2023-11-12T11:55:56.916Z,96811.06
2023-11-12T11:58:31.596Z,96812.96
2023-11-12T12:01:03.005Z,96804.48
2023-11-12T12:03:34.362Z,96806.25
2023-11-12T12:06:17.613Z,96812.99
2023-11-12T12:09:02.059Z,96812.38
2023-11-12T12:11:35.154Z,96811.80
2023-11-12T12:14:07.035Z,96811.06
2023-11-12T12:16:38.242Z,96808.88
2023-11-12T12:19:10.218Z,96810.20
2023-11-12T12:21:47.462Z,96813.73
2023-11-12T12:24:19.649Z,96813.27
2023-11-12T12:26:51.071Z,96818.70
2023-11-12T12:29:23.385Z,96816.46
2023-11-12T12:31:56.780Z,96816.73
2023-11-12T12:34:28.169Z,96821.15
2023-11-12T12:36:58.545Z,96821.44
2023-11-12T12:39:29.938Z,96825.30
2023-11-12T12:42:06.002Z,96823.64
2023-11-12T12:44:36.788Z,96827.79
2023-11-12T12:47:08.178Z,96829.92
2023-11-12T12:49:41.070Z,96832.58
2023-11-12T12:52:23.483Z,96835.23
2023-11-12T12:54:54.726Z,96830.77
2023-11-12T12:57:25.965Z,96828.67
2023-11-12T12:59:57.074Z,96831.55
2023-11-12T13:02:29.738Z,96834.91
2023-11-12T13:05:01.426Z,96833.42
2023-11-12T13:07:32.900Z,96832.23
2023-11-12T13:10:02.566Z,96831.91
2023-11-12T13:12:34.830Z,96831.34
2023-11-12T13:15:10.127Z,96832.88
2023-11-12T13:17:42.716Z,96832.77
2023-11-12T13:20:15.716Z,96826.95
2023-11-12T13:22:47.415Z,96829.54
2023-11-12T13:25:19.186Z,96827.20
2023-11-12T13:27:51.180Z,96830.45
2023-11-12T13:30:22.197Z,96831.39
2023-11-12T13:32:53.243Z,96834.73
2023-11-12T13:35:22.609Z,96836.33
2023-11-12T13:37:53.554Z,96838.90
2023-11-12T13:40:24.648Z,96841.34
2023-11-12T13:42:55.715Z,96839.92
2023-11-12T13:45:26.650Z,96838.70
2023-11-12T13:47:58.584Z,96838.20
2023-11-12T13:50:29.603Z,96840.45
2023-11-12T13:53:00.848Z,96835.55
2023-11-12T13:55:32.766Z,96838.80
2023-11-12T13:58:05.368Z,96839.37
2023-11-12T14:00:37.101Z,96846.38
2023-11-12T14:03:08.176Z,96842.63
2023-11-12T14:05:39.327Z,96843.38
2023-11-12T14:08:13.050Z,96846.92
2023-11-12T14:10:45.481Z,96847.02
2023-11-12T14:13:16.670Z,96851.46
2023-11-12T14:15:50.041Z,96853.53
2023-11-12T14:18:23.364Z,96853.16
2023-11-12T14:20:56.249Z,96858.64
2023-11-12T14:23:27.025Z,96860.35
2023-11-12T14:25:56.713Z,96857.95
2023-11-12T14:28:28.997Z,96862.09
2023-11-12T14:31:01.877Z,96860.10
2023-11-12T14:33:33.496Z,96866.39
2023-11-12T14:36:06.191Z,96869.36
2023-11-12T14:38:37.191Z,96870.59
2023-11-12T14:41:10.076Z,96870.42
2023-11-12T14:43:41.303Z,96867.49
2023-11-12T14:46:20.402Z,96865.89
2023-11-12T14:48:52.239Z,96862.63
2023-11-12T14:51:23.905Z,96865.55
2023-11-12T14:54:01.154Z,96870.08
2023-11-12T14:56:37.724Z,96874.52
2023-11-12T14:59:08.736Z,96874.86
2023-11-12T15:01:43.513Z,96875.51
2023-11-12T15:04:16.764Z,96879.25
2023-11-12T15:06:47.940Z,96875.66
2023-11-12T15:09:18.764Z,96879.19
2023-11-12T15:11:49.740Z,96880.55
2023-11-12T15:14:21.206Z,96881.23
2023-11-12T15:16:52.280Z,96883.77
2023-11-12T15:19:24.883Z,96883.23
2023-11-12T15:21:56.957Z,96886.36
2023-11-12T15:24:28.230Z,96883.83
2023-11-12T15:26:59.467Z,96882.36
2023-11-12T15:29:30.809Z,96882.41
2023-11-12T15:32:02.942Z,96880.77
2023-11-12T15:34:33.887Z,96881.83
2023-11-12T15:37:03.481Z,96879.81
2023-11-12T15:39:35.426Z,96880.92
2023-11-12T15:42:09.079Z,96880.69
2023-11-12T15:44:39.918Z,96881.05
2023-11-12T15:47:10.872Z,96880.35
2023-11-12T15:49:41.830Z,96883.67
2023-11-12T15:52:12.720Z,96887.77
2023-11-12T15:54:48.359Z,96889.24
2023-11-12T15:57:19.973Z,96889.87
2023-11-12T15:59:50.984Z,96889.57
2023-11-12T16:02:22.183Z,96891.80
2023-11-12T16:04:52.126Z,96896.25
2023-11-12T16:07:22.997Z,96896.15
2023-11-12T16:09:54.083Z,96896.34
2023-11-12T16:12:25.975Z,96896.96
2023-11-12T16:14:57.160Z,96895.58
2023-11-12T16:17:29.249Z,96892.64
2023-11-12T16:20:01.672Z,96897.29
2023-11-12T16:22:36.910Z,96898.95
2023-11-12T16:25:11.652Z,96902.94
2023-11-12T16:27:43.052Z,96906.20
2023-11-12T16:30:14.845Z,96906.64
2023-11-12T16:32:47.101Z,96907.73
2023-11-12T16:35:19.027Z,96907.46
2023-11-12T16:37:51.462Z,96908.75
2023-11-12T16:40:23.595Z,96907.27
2023-11-12T16:42:55.051Z,96914.06
2023-11-12T16:45:26.085Z,96910.77
2023-11-12T16:47:56.426Z,96912.48
2023-11-12T16:50:28.490Z,96912.06
2023-11-12T16:52:59.400Z,96915.16
2023-11-12T16:55:30.354Z,96923.04
2023-11-12T16:57:59.709Z,96926.27
2023-11-12T17:00:32.375Z,96930.60
2023-11-12T17:03:03.564Z,96935.27
2023-11-12T17:05:35.058Z,96937.73
2023-11-12T17:08:07.362Z,96945.90
2023-11-12T17:10:38.406Z,96950.39
2023-11-12T17:13:08.706Z,96956.38
2023-11-12T17:15:40.946Z,96957.20
2023-11-12T17:18:12.831Z,96962.86
2023-11-12T17:20:44.017Z,96963.69
2023-11-12T17:23:15.344Z,96963.33
2023-11-12T17:25:46.309Z,96966.86
2023-11-12T17:28:15.774Z,96966.30
2023-11-12T17:30:47.095Z,96960.89
2023-11-12T17:33:18.084Z,96961.11
2023-11-12T17:35:49.110Z,96956.71
2023-11-12T17:38:20.118Z,96957.99
2023-11-12T17:40:51.301Z,96961.08
2023-11-12T17:43:23.519Z,96962.23
2023-11-12T17:45:54.633Z,96961.65
2023-11-12T17:48:25.616Z,96956.45
2023-11-12T17:50:58.699Z,96957.73
2023-11-12T17:53:29.803Z,96954.98
2023-11-12T17:55:59.456Z,96957.55
2023-11-12T17:58:30.884Z,96956.67
2023-11-12T18:01:03.426Z,96957.77
2023-11-12T18:03:35.828Z,96959.42
2023-11-12T18:06:07.863Z,96959.73
2023-11-12T18:08:38.744Z,96959.06
2023-11-12T18:11:08.552Z,96961.86
2023-11-12T18:13:39.505Z,96960.51
2023-11-12T18:16:11.201Z,96964.41
2023-11-12T18:18:43.765Z,96960.05
2023-11-12T18:21:15.100Z,96965.08
2023-11-12T18:23:46.083Z,96964.92
2023-11-12T18:26:18.964Z,96965.26
2023-11-12T18:28:51.654Z,96963.77
2023-11-12T18:31:24.989Z,96964.36
2023-11-12T18:33:56.070Z,96968.77
2023-11-12T18:36:26.984Z,96968.22
2023-11-12T18:38:57.906Z,96967.86
2023-11-12T18:41:27.507Z,96969.17
2023-11-12T18:43:58.390Z,96968.11
2023-11-12T18:46:29.217Z,96970.55
2023-11-12T18:49:00.245Z,96972.73
2023-11-12T18:51:29.755Z,96976.70
2023-11-12T18:54:02.755Z,96973.21
2023-11-12T18:56:37.059Z,96974.81
2023-11-12T18:59:11.345Z,96974.70
2023-11-12T19:01:43.655Z,96978.48
2023-11-12T19:04:16.600Z,96983.73
2023-11-12T19:06:50.144Z,96982.65
2023-11-12T19:09:21.449Z,96985.83
2023-11-12T19:11:53.989Z,96982.83
2023-11-12T19:14:24.894Z,96984.25
2023-11-12T19:16:55.995Z,96985.89
2023-11-12T19:19:30.110Z,96988.83
2023-11-12T19:22:01.155Z,96990.00
2023-11-12T19:24:33.657Z,96992.42
2023-11-12T19:27:05.162Z,96994.13
2023-11-12T19:29:35.985Z,96996.52
2023-11-12T19:32:07.976Z,96998.97
2023-11-12T19:34:39.081Z,97002.86
2023-11-12T19:37:09.888Z,97009.36
2023-11-12T19:39:41.966Z,97010.63
2023-11-12T19:42:14.399Z,97014.38
2023-11-12T19:44:47.104Z,97008.55
2023-11-12T19:47:18.188Z,97008.99
2023-11-12T19:49:49.285Z,97009.64
2023-11-12T19:52:21.013Z,97007.25
2023-11-12T19:54:52.110Z,97006.70
2023-11-12T19:57:23.335Z,97003.16
2023-11-12T19:59:56.778Z,97002.56
2023-11-12T20:02:29.080Z,97007.85
2023-11-12T20:05:02.754Z,97012.65
2023-11-12T20:07:35.935Z,97016.04
2023-11-12T20:10:08.485Z,97013.45
2023-11-12T20:12:40.072Z,97014.38
2023-11-12T20:15:12.116Z,97019.16
2023-11-12T20:17:44.147Z,97020.86
2023-11-12T20:20:16.289Z,97021.38
2023-11-12T20:22:47.873Z,97015.77
2023-11-12T20:25:25.258Z,97017.42
2023-11-12T20:27:58.046Z,97019.19
2023-11-12T20:30:30.473Z,97024.29
2023-11-12T20:33:02.103Z,97024.45
2023-11-12T20:35:34.788Z,97023.45
2023-11-12T20:38:08.976Z,97017.35
2023-11-12T20:40:42.012Z,97018.23
2023-11-12T20:43:13.057Z,97015.13
2023-11-12T20:45:44.777Z,97024.22
2023-11-12T20:48:17.250Z,97024.25
2023-11-12T20:50:48.936Z,97023.41
2023-11-12T20:53:19.816Z,97025.72
2023-11-12T20:55:49.499Z,97026.41
2023-11-12T20:58:22.701Z,97032.00
2023-11-12T21:00:59.615Z,97035.39
2023-11-12T21:03:30.924Z,97038.48
2023-11-12T21:06:01.064Z,97039.39
2023-11-12T21:08:32.527Z,97042.58
2023-11-12T21:11:02.604Z,97040.67
2023-11-12T21:13:33.524Z,97044.41
2023-11-12T21:16:04.909Z,97040.34
2023-11-12T21:18:35.943Z,97037.19
2023-11-12T21:21:07.327Z,97040.19
2023-11-12T21:23:39.362Z,97043.70
2023-11-12T21:26:15.267Z,97044.71
2023-11-12T21:28:47.041Z,97044.25
2023-11-12T21:31:18.086Z,97042.47
2023-11-12T21:33:49.291Z,97046.48
2023-11-12T21:36:20.468Z,97042.13
2023-11-12T21:38:49.922Z,97048.66
2023-11-12T21:41:21.154Z,97048.11
2023-11-12T21:43:54.014Z,97047.76
2023-11-12T21:46:25.137Z,97048.31
2023-11-12T21:48:56.466Z,97057.66
2023-11-12T21:51:27.427Z,97064.77
2023-11-12T21:53:58.364Z,97064.08
2023-11-12T21:56:30.215Z,97063.63
2023-11-12T21:59:01.587Z,97064.03
2023-11-12T22:01:32.693Z,97067.58
2023-11-12T22:04:03.848Z,97069.13
2023-11-12T22:06:35.425Z,97064.64
2023-11-12T22:09:14.783Z,97068.61
2023-11-12T22:11:46.816Z,97072.95
2023-11-12T22:14:18.006Z,97078.45
2023-11-12T22:16:49.449Z,97080.75
2023-11-12T22:19:21.692Z,97088.06
2023-11-12T22:21:52.803Z,97089.09
2023-11-12T22:24:22.512Z,97087.54
2023-11-12T22:26:54.016Z,97088.03
2023-11-12T22:29:25.882Z,97091.68
2023-11-12T22:31:56.701Z,97089.27
2023-11-12T22:34:28.404Z,97090.39
2023-11-12T22:36:59.313Z,97087.96
2023-11-12T22:39:30.484Z,97091.27
2023-11-12T22:42:01.728Z,97093.20
2023-11-12T22:44:32.944Z,97090.90
2023-11-12T22:47:02.485Z,97089.50
2023-11-12T22:49:33.615Z,97090.72
2023-11-12T22:52:05.170Z,97093.20
2023-11-12T22:54:36.365Z,97090.23
2023-11-12T22:57:09.772Z,97094.08
2023-11-12T22:59:40.828Z,97092.29
2023-11-12T23:02:12.519Z,97090.36
2023-11-12T23:04:42.057Z,97086.63
2023-11-12T23:07:13.794Z,97088.67
2023-11-12T23:09:46.100Z,97091.65
2023-11-12T23:12:19.774Z,97092.58
2023-11-12T23:14:52.500Z,97094.92
2023-11-12T23:17:23.647Z,97100.73
2023-11-12T23:19:54.609Z,97103.83
2023-11-12T23:22:25.594Z,97107.08
2023-11-12T23:24:56.547Z,97109.40
2023-11-12T23:27:27.439Z,97112.23
2023-11-12T23:29:58.353Z,97113.75
2023-11-12T23:32:29.294Z,97116.44
2023-11-12T23:35:00.185Z,97120.13
2023-11-12T23:37:33.936Z,97120.81
2023-11-12T23:40:05.915Z,97121.25
2023-11-12T23:42:38.135Z,97123.27
2023-11-12T23:45:11.022Z,97128.13
2023-11-12T23:47:42.231Z,97131.84
2023-11-12T23:50:13.927Z,97135.19
2023-11-12T23:52:45.629Z,97131.34
2023-11-12T23:55:17.476Z,97132.84
2023-11-12T23:57:48.662Z,97129.92
